Terminal Aerodrome Forecast
Issued by NWS Raleigh/Durham, NC

Home | Current Version | Previous Version | Text Only | Print | Product List | Glossary On
Versions: 1 2 3 4 5 6 7 8 9 10 11 12 13 14 15 16 17
000
FTUS42 KRAH 300658 AAA
TAFFAY
TAF AMD
KFAY 300658Z 3007/3106 13009KT P6SM FEW050
      TEMPO 3007/3010 BKN011=

USA.gov is the U.S. government's official web portal to all federal, state and local government web resources and services.